createdAt,value
2018-09-05T00:03:39.910Z,4.70
2018-09-05T00:07:43.588Z,4.97
2018-09-05T00:11:47.263Z,4.73
2018-09-05T00:15:50.924Z,5.20
2018-09-05T00:19:54.571Z,4.90
2018-09-05T00:23:58.306Z,4.90
2018-09-05T00:28:01.988Z,4.63
2018-09-05T00:32:05.791Z,4.23
2018-09-05T00:36:09.452Z,4.90
2018-09-05T00:40:13.108Z,4.00
2018-09-05T00:44:16.752Z,4.73
2018-09-05T00:48:20.365Z,4.17
2018-09-05T00:52:24.035Z,4.67
2018-09-05T00:56:27.687Z,4.23
2018-09-05T01:00:31.422Z,4.70
2018-09-05T01:04:35.101Z,4.30
2018-09-05T01:08:38.784Z,4.67
2018-09-05T01:12:42.541Z,4.87
2018-09-05T01:16:46.212Z,4.40
2018-09-05T01:20:49.940Z,4.63
2018-09-05T01:24:53.568Z,4.50
2018-09-05T01:28:57.239Z,4.60
2018-09-05T01:33:00.865Z,4.50
2018-09-05T01:37:04.732Z,4.80
2018-09-05T01:41:08.414Z,4.50
2018-09-05T01:45:12.108Z,4.53
2018-09-05T01:49:15.741Z,4.30
2018-09-05T01:53:19.333Z,4.87
2018-09-05T01:57:22.972Z,4.67
2018-09-05T02:01:26.644Z,4.13
2018-09-05T02:05:30.541Z,4.20
2018-09-05T02:09:34.202Z,3.97
2018-09-05T02:13:37.818Z,4.23
2018-09-05T02:17:41.466Z,4.80
2018-09-05T02:21:45.120Z,4.57
2018-09-05T02:25:48.777Z,5.17
2018-09-05T02:29:52.505Z,4.70
2018-09-05T02:33:56.132Z,4.60
2018-09-05T02:37:59.769Z,4.30
2018-09-05T02:42:03.423Z,4.43
2018-09-05T02:46:06.824Z,4.57
2018-09-05T02:50:10.502Z,5.10
2018-09-05T02:54:14.109Z,5.37
2018-09-05T02:58:17.849Z,4.90
2018-09-05T03:02:21.506Z,4.73
2018-09-05T03:06:25.181Z,4.67
2018-09-05T03:10:28.829Z,5.00
2018-09-05T03:14:32.454Z,4.40
2018-09-05T03:18:36.159Z,4.80
2018-09-05T03:22:39.924Z,4.87
2018-09-05T03:26:43.568Z,4.63
2018-09-05T03:30:47.259Z,5.20
2018-09-05T03:34:50.865Z,4.73
2018-09-05T03:38:54.504Z,4.43
2018-09-05T03:42:58.148Z,4.77
2018-09-05T03:47:01.838Z,4.53
2018-09-05T03:51:05.521Z,4.70
2018-09-05T03:55:09.158Z,4.67
2018-09-05T03:59:13.508Z,4.53
2018-09-05T04:03:17.160Z,4.87
2018-09-05T04:07:20.801Z,5.50
2018-09-05T04:11:24.906Z,4.47
2018-09-05T04:15:28.543Z,5.17
2018-09-05T04:19:32.168Z,5.20
2018-09-05T04:23:40.013Z,5.20
2018-09-05T04:27:43.777Z,4.87
2018-09-05T04:31:47.432Z,5.23
2018-09-05T04:35:51.069Z,5.30
2018-09-05T04:39:54.721Z,5.60
2018-09-05T04:43:58.401Z,4.87
2018-09-05T04:48:02.041Z,5.20
2018-09-05T04:52:05.939Z,5.33
2018-09-05T04:56:09.609Z,5.33
2018-09-05T05:00:13.241Z,5.47
2018-09-05T05:04:16.913Z,5.10
2018-09-05T05:08:20.649Z,4.93
2018-09-05T05:12:24.363Z,4.73
2018-09-05T05:16:28.059Z,5.80
2018-09-05T05:20:38.076Z,6.03
2018-09-05T05:24:41.777Z,5.07
2018-09-05T05:28:45.516Z,6.03
2018-09-05T05:32:49.242Z,5.03
2018-09-05T05:36:52.888Z,5.23
2018-09-05T05:40:56.514Z,5.60
2018-09-05T05:45:00.206Z,5.97
2018-09-05T05:49:03.964Z,5.70
2018-09-05T05:53:07.595Z,7.30
2018-09-05T05:57:11.256Z,6.33
2018-09-05T06:01:14.893Z,5.97
2018-09-05T06:05:18.592Z,5.47
2018-09-05T06:09:22.286Z,5.50
2018-09-05T06:13:25.939Z,5.90
2018-09-05T06:17:30.015Z,5.97
2018-09-05T06:22:07.658Z,5.80
2018-09-05T06:26:11.311Z,5.90
2018-09-05T06:30:15.173Z,5.27
2018-09-05T06:34:18.951Z,5.53
2018-09-05T06:38:22.584Z,4.93
2018-09-05T06:42:26.249Z,5.20
2018-09-05T06:46:29.859Z,5.03
2018-09-05T06:50:33.579Z,5.57
2018-09-05T06:54:37.244Z,5.83
2018-09-05T06:58:40.943Z,5.83
2018-09-05T07:02:44.720Z,6.13
2018-09-05T07:06:48.446Z,5.83
2018-09-05T07:10:52.130Z,5.40
2018-09-05T07:14:55.812Z,6.43
2018-09-05T07:18:59.668Z,5.70
2018-09-05T07:23:03.360Z,6.27
2018-09-05T07:27:07.048Z,5.90
2018-09-05T07:31:10.735Z,5.93
2018-09-05T07:35:14.448Z,6.87
2018-09-05T07:39:18.134Z,6.10
2018-09-05T07:43:21.781Z,5.70
2018-09-05T07:47:25.470Z,6.30
2018-09-05T07:51:29.146Z,6.30
2018-09-05T07:55:32.839Z,7.83
2018-09-05T07:59:36.637Z,6.57
2018-09-05T08:03:41.455Z,6.50
2018-09-05T08:07:45.188Z,8.07
2018-09-05T08:11:50.204Z,6.93
2018-09-05T08:15:55.155Z,7.10
2018-09-05T08:19:59.806Z,6.63
2018-09-05T08:24:03.527Z,7.90
2018-09-05T08:28:07.223Z,7.53
2018-09-05T08:32:10.875Z,7.97
2018-09-05T08:36:14.740Z,7.20
2018-09-05T08:40:18.299Z,7.57
2018-09-05T08:44:22.089Z,8.00
2018-09-05T08:48:25.800Z,7.20
2018-09-05T08:52:29.560Z,7.20
2018-09-05T08:56:33.267Z,8.10
2018-09-05T09:00:36.975Z,7.47
2018-09-05T09:04:40.724Z,8.23
2018-09-05T09:08:44.372Z,7.60
2018-09-05T09:12:48.101Z,7.80
2018-09-05T09:16:51.843Z,7.67
2018-09-05T09:20:55.514Z,9.23
2018-09-05T09:24:59.189Z,9.43
2018-09-05T09:29:02.851Z,8.47
2018-09-05T09:33:06.567Z,8.27
2018-09-05T09:37:10.270Z,8.53
2018-09-05T09:41:13.943Z,8.87
2018-09-05T09:45:17.643Z,8.63
2018-09-05T09:49:21.372Z,8.00
2018-09-05T09:53:25.053Z,7.20
2018-09-05T09:57:28.710Z,8.53
2018-09-05T10:01:37.595Z,8.03
2018-09-05T10:05:46.659Z,7.27
2018-09-05T10:09:55.115Z,6.83
2018-09-05T10:14:03.824Z,6.93
2018-09-05T10:18:12.841Z,6.23
2018-09-05T10:22:16.508Z,6.27
2018-09-05T10:26:20.155Z,5.63
2018-09-05T10:30:23.917Z,7.33
2018-09-05T10:34:27.553Z,5.73
2018-09-05T10:38:31.256Z,6.70
2018-09-05T10:42:34.915Z,5.47
2018-09-05T10:46:38.930Z,6.40
2018-09-05T10:50:42.663Z,5.07
2018-09-05T10:54:46.332Z,5.10
2018-09-05T10:58:50.038Z,4.50
2018-09-05T11:02:53.701Z,4.47
2018-09-05T11:06:57.992Z,4.40
2018-09-05T11:11:01.648Z,4.97
2018-09-05T11:15:05.328Z,3.73
2018-09-05T11:19:09.559Z,4.23
2018-09-05T11:23:13.646Z,4.63
2018-09-05T11:27:17.360Z,4.33
2018-09-05T11:31:21.013Z,4.80
2018-09-05T11:35:24.639Z,5.57
2018-09-05T11:39:28.291Z,4.37
2018-09-05T11:43:32.016Z,5.37
2018-09-05T11:47:35.723Z,5.07
2018-09-05T11:51:39.760Z,4.77
2018-09-05T11:55:43.419Z,4.27
2018-09-05T11:59:47.062Z,4.20
2018-09-05T12:03:50.739Z,4.30
2018-09-05T12:07:54.523Z,4.60
2018-09-05T12:11:58.200Z,3.80
2018-09-05T12:16:01.868Z,3.77
2018-09-05T12:20:05.553Z,4.30
2018-09-05T12:24:09.220Z,3.87
2018-09-05T12:28:12.927Z,4.33
2018-09-05T12:32:16.566Z,4.60
2018-09-05T12:36:20.268Z,4.07
2018-09-05T12:40:24.040Z,4.57
2018-09-05T12:44:27.713Z,3.70
2018-09-05T12:48:31.364Z,3.63
2018-09-05T12:52:35.024Z,4.30
2018-09-05T12:56:38.680Z,4.20
2018-09-05T13:00:42.420Z,3.63
2018-09-05T13:04:46.149Z,4.63
2018-09-05T13:08:49.836Z,4.00
2018-09-05T13:12:53.484Z,3.83
2018-09-05T13:16:57.244Z,3.83
2018-09-05T13:21:00.919Z,4.20
2018-09-05T13:25:04.597Z,3.80
2018-09-05T13:29:08.365Z,3.80
2018-09-05T13:33:12.132Z,3.97
2018-09-05T13:37:15.747Z,3.53
2018-09-05T13:41:19.523Z,4.03
2018-09-05T13:45:23.214Z,3.67
2018-09-05T13:49:26.878Z,3.63
2018-09-05T13:53:30.917Z,3.60
2018-09-05T13:57:34.589Z,4.07
2018-09-05T14:01:38.249Z,3.63
2018-09-05T14:05:41.937Z,3.50
2018-09-05T14:09:45.728Z,4.20
2018-09-05T14:13:49.375Z,4.13
2018-09-05T14:17:53.055Z,3.93
2018-09-05T14:21:56.732Z,3.20
2018-09-05T14:26:00.487Z,3.83
2018-09-05T14:30:04.328Z,4.27
2018-09-05T14:34:08.116Z,3.50
2018-09-05T14:38:12.110Z,3.77
2018-09-05T14:42:15.795Z,4.10
2018-09-05T14:46:19.611Z,3.87
2018-09-05T14:50:23.369Z,4.47
2018-09-05T14:54:27.072Z,3.70
2018-09-05T14:58:30.748Z,3.80
2018-09-05T15:02:34.376Z,4.53
2018-09-05T15:06:38.069Z,3.77
2018-09-05T15:10:41.788Z,3.87
2018-09-05T15:14:45.426Z,3.63
2018-09-05T15:18:49.132Z,4.13
2018-09-05T15:22:52.760Z,4.30
2018-09-05T15:26:56.447Z,3.93
2018-09-05T15:31:00.146Z,3.50
2018-09-05T15:35:03.934Z,3.77
2018-09-05T15:39:09.204Z,3.90
2018-09-05T15:43:12.840Z,4.03
2018-09-05T15:47:16.545Z,4.10
2018-09-05T15:51:20.187Z,3.80
2018-09-05T15:55:25.034Z,3.40
2018-09-05T15:59:28.756Z,3.90
2018-09-05T16:03:32.473Z,3.83
2018-09-05T16:07:36.213Z,4.40
2018-09-05T16:11:40.275Z,3.63
2018-09-05T16:15:44.043Z,5.97
2018-09-05T16:19:47.625Z,3.80
2018-09-05T16:23:51.313Z,3.63
2018-09-05T16:27:54.996Z,3.77
2018-09-05T16:31:58.648Z,3.23
2018-09-05T16:36:02.331Z,4.17
2018-09-05T16:40:06.176Z,4.40
2018-09-05T16:44:10.709Z,3.50
2018-09-05T16:48:14.408Z,3.57
2018-09-05T16:52:18.131Z,4.20
2018-09-05T16:56:21.865Z,3.83
2018-09-05T17:00:25.620Z,3.67
2018-09-05T17:04:29.301Z,4.07
2018-09-05T17:08:32.970Z,3.60
2018-09-05T17:12:36.618Z,3.50
2018-09-05T17:16:40.422Z,3.93
2018-09-05T17:20:44.172Z,3.93
2018-09-05T17:24:47.889Z,4.13
2018-09-05T17:28:51.644Z,3.80
2018-09-05T17:32:55.263Z,4.03
2018-09-05T17:36:58.969Z,3.60
2018-09-05T17:41:02.612Z,3.87
2018-09-05T17:45:06.640Z,4.07
2018-09-05T17:49:10.544Z,3.77
2018-09-05T17:53:14.201Z,3.93
2018-09-05T17:57:17.947Z,3.83
2018-09-05T18:01:23.220Z,3.87
2018-09-05T18:05:26.912Z,4.23
2018-09-05T18:09:30.620Z,3.37
2018-09-05T18:13:34.359Z,3.60
2018-09-05T18:17:38.147Z,4.00
2018-09-05T18:21:41.807Z,3.77
2018-09-05T18:25:45.445Z,3.67
2018-09-05T18:29:49.130Z,3.57
2018-09-05T18:33:52.882Z,3.70
2018-09-05T18:37:56.496Z,3.93
2018-09-05T18:42:00.161Z,4.10
2018-09-05T18:46:03.883Z,4.00
2018-09-05T18:50:07.564Z,4.10
2018-09-05T18:54:11.228Z,4.20
2018-09-05T18:58:14.862Z,4.23
2018-09-05T19:02:18.584Z,4.03
2018-09-05T19:06:22.225Z,4.17
2018-09-05T19:10:25.841Z,4.30
2018-09-05T19:14:29.481Z,4.03
2018-09-05T19:18:33.225Z,3.50
2018-09-05T19:22:36.863Z,3.73
2018-09-05T19:26:40.503Z,3.73
2018-09-05T19:30:44.135Z,4.60
2018-09-05T19:34:47.851Z,4.33
2018-09-05T19:38:51.520Z,3.90
2018-09-05T19:42:55.194Z,3.90
2018-09-05T19:46:58.846Z,3.47
2018-09-05T19:51:02.486Z,3.83
2018-09-05T19:55:06.185Z,3.93
2018-09-05T19:59:09.828Z,4.43
2018-09-05T20:03:13.496Z,3.97
2018-09-05T20:07:17.152Z,4.20
2018-09-05T20:11:20.880Z,3.90
2018-09-05T20:15:24.624Z,3.57
2018-09-05T20:19:28.236Z,4.47
2018-09-05T20:23:31.899Z,4.10
2018-09-05T20:27:35.596Z,4.37
2018-09-05T20:31:39.255Z,4.30
2018-09-05T20:35:42.903Z,3.50
2018-09-05T20:39:46.639Z,4.47
2018-09-05T20:43:50.269Z,4.07
2018-09-05T20:47:53.927Z,4.33
2018-09-05T20:51:57.608Z,4.80
2018-09-05T20:56:01.261Z,3.77
2018-09-05T21:00:05.468Z,4.13
2018-09-05T21:04:09.119Z,4.60
2018-09-05T21:08:12.828Z,4.27
2018-09-05T21:12:16.460Z,4.80
2018-09-05T21:16:20.125Z,3.53
2018-09-05T21:20:23.958Z,4.93
2018-09-05T21:24:27.567Z,4.70
2018-09-05T21:28:31.242Z,4.20
2018-09-05T21:32:34.876Z,4.30
2018-09-05T21:36:38.540Z,4.63
2018-09-05T21:40:42.189Z,4.93
2018-09-05T21:44:45.787Z,4.63
2018-09-05T21:48:49.431Z,4.57
2018-09-05T21:52:53.195Z,5.50
2018-09-05T21:56:56.783Z,5.30
2018-09-05T22:01:00.403Z,5.53
2018-09-05T22:05:04.118Z,5.40
2018-09-05T22:09:09.174Z,4.87
2018-09-05T22:13:12.854Z,5.17
2018-09-05T22:17:16.526Z,5.17
2018-09-05T22:21:20.290Z,5.20
2018-09-05T22:25:23.899Z,4.77
2018-09-05T22:29:27.618Z,4.20
2018-09-05T22:33:31.304Z,4.70
2018-09-05T22:37:34.942Z,4.87
2018-09-05T22:41:38.601Z,4.90
2018-09-05T22:45:53.635Z,4.90
2018-09-05T22:50:31.060Z,4.77
2018-09-05T22:56:05.670Z,4.83
2018-09-05T23:00:27.497Z,4.80
2018-09-05T23:05:15.224Z,5.27
2018-09-05T23:09:28.964Z,4.57
2018-09-05T23:13:43.955Z,5.23
2018-09-05T23:20:05.532Z,4.70
2018-09-05T23:24:10.869Z,4.80
2018-09-05T23:28:14.549Z,5.23
2018-09-05T23:32:18.284Z,5.20
2018-09-05T23:36:22.271Z,4.83
2018-09-05T23:40:25.940Z,4.93
2018-09-05T23:44:29.601Z,5.03
2018-09-05T23:48:33.256Z,4.77
2018-09-05T23:52:36.920Z,5.10
2018-09-05T23:56:40.608Z,4.23
